sensor_id;sensor_type;location;lat;lon;timestamp;P1;durP1;ratioP1;P2;durP2;ratioP2
26838;SDS011;40088;51.214;6.786;2023-04-21T00:05:29;5.35;;;3.10;;
26838;SDS011;40088;51.214;6.786;2023-04-21T00:15:29;4.68;;;3.60;;
26838;SDS011;40088;51.214;6.786;2023-04-21T00:25:30;3.38;;;3.08;;
26838;SDS011;40088;51.214;6.786;2023-04-21T00:35:30;3.83;;;3.38;;
26838;SDS011;40088;51.214;6.786;2023-04-21T00:45:30;3.88;;;3.47;;
26838;SDS011;40088;51.214;6.786;2023-04-21T00:55:30;4.95;;;3.45;;
26838;SDS011;40088;51.214;6.786;2023-04-21T01:05:31;3.92;;;3.55;;
26838;SDS011;40088;51.214;6.786;2023-04-21T01:15:31;5.35;;;3.92;;
26838;SDS011;40088;51.214;6.786;2023-04-21T01:25:32;4.75;;;3.95;;
26838;SDS011;40088;51.214;6.786;2023-04-21T01:35:33;4.18;;;3.78;;
26838;SDS011;40088;51.214;6.786;2023-04-21T01:45:33;5.40;;;3.67;;
26838;SDS011;40088;51.214;6.786;2023-04-21T01:55:34;4.47;;;3.83;;
26838;SDS011;40088;51.214;6.786;2023-04-21T02:05:34;4.40;;;3.93;;
26838;SDS011;40088;51.214;6.786;2023-04-21T02:15:35;4.55;;;3.83;;
26838;SDS011;40088;51.214;6.786;2023-04-21T02:25:36;4.10;;;3.70;;
26838;SDS011;40088;51.214;6.786;2023-04-21T02:35:36;4.20;;;3.80;;
26838;SDS011;40088;51.214;6.786;2023-04-21T02:45:36;4.97;;;3.80;;
26838;SDS011;40088;51.214;6.786;2023-04-21T02:55:37;4.32;;;3.90;;
26838;SDS011;40088;51.214;6.786;2023-04-21T03:05:37;4.50;;;4.03;;
26838;SDS011;40088;51.214;6.786;2023-04-21T03:15:38;4.70;;;4.03;;
26838;SDS011;40088;51.214;6.786;2023-04-21T03:25:38;4.85;;;4.35;;
26838;SDS011;40088;51.214;6.786;2023-04-21T03:35:38;5.45;;;4.55;;
26838;SDS011;40088;51.214;6.786;2023-04-21T03:45:39;4.80;;;4.15;;
26838;SDS011;40088;51.214;6.786;2023-04-21T03:55:39;5.03;;;4.53;;
26838;SDS011;40088;51.214;6.786;2023-04-21T04:05:39;5.05;;;4.20;;
26838;SDS011;40088;51.214;6.786;2023-04-21T04:15:40;4.78;;;4.30;;
26838;SDS011;40088;51.214;6.786;2023-04-21T04:25:40;5.43;;;4.65;;
26838;SDS011;40088;51.214;6.786;2023-04-21T04:35:41;5.10;;;4.45;;
26838;SDS011;40088;51.214;6.786;2023-04-21T04:45:41;4.60;;;4.20;;
26838;SDS011;40088;51.214;6.786;2023-04-21T04:55:42;4.60;;;4.10;;
26838;SDS011;40088;51.214;6.786;2023-04-21T05:05:43;6.30;;;4.35;;
26838;SDS011;40088;51.214;6.786;2023-04-21T05:15:45;4.90;;;4.18;;
26838;SDS011;40088;51.214;6.786;2023-04-21T05:25:45;4.70;;;4.25;;
26838;SDS011;40088;51.214;6.786;2023-04-21T05:35:45;5.22;;;4.35;;
26838;SDS011;40088;51.214;6.786;2023-04-21T05:45:46;5.65;;;4.50;;
26838;SDS011;40088;51.214;6.786;2023-04-21T05:55:46;5.40;;;4.50;;
26838;SDS011;40088;51.214;6.786;2023-04-21T06:05:52;4.88;;;3.88;;
26838;SDS011;40088;51.214;6.786;2023-04-21T06:15:55;5.18;;;4.40;;
26838;SDS011;40088;51.214;6.786;2023-04-21T06:25:59;4.75;;;4.15;;
26838;SDS011;40088;51.214;6.786;2023-04-21T06:36:00;4.72;;;4.18;;
26838;SDS011;40088;51.214;6.786;2023-04-21T06:46:00;4.75;;;4.18;;
26838;SDS011;40088;51.214;6.786;2023-04-21T06:56:00;5.05;;;4.00;;
26838;SDS011;40088;51.214;6.786;2023-04-21T07:06:01;4.82;;;4.00;;
26838;SDS011;40088;51.214;6.786;2023-04-21T07:16:01;4.80;;;3.63;;
26838;SDS011;40088;51.214;6.786;2023-04-21T07:26:01;5.13;;;4.57;;
26838;SDS011;40088;51.214;6.786;2023-04-21T07:36:02;3.95;;;3.42;;
26838;SDS011;40088;51.214;6.786;2023-04-21T07:46:02;4.43;;;3.87;;
26838;SDS011;40088;51.214;6.786;2023-04-21T07:56:03;4.97;;;4.10;;
26838;SDS011;40088;51.214;6.786;2023-04-21T08:06:06;4.20;;;3.80;;
26838;SDS011;40088;51.214;6.786;2023-04-21T08:16:06;4.22;;;3.70;;
26838;SDS011;40088;51.214;6.786;2023-04-21T08:26:08;4.67;;;4.10;;
26838;SDS011;40088;51.214;6.786;2023-04-21T08:36:08;4.43;;;4.03;;
26838;SDS011;40088;51.214;6.786;2023-04-21T08:46:10;4.80;;;4.30;;
26838;SDS011;40088;51.214;6.786;2023-04-21T08:56:11;5.80;;;4.18;;
26838;SDS011;40088;51.214;6.786;2023-04-21T09:06:11;4.70;;;4.25;;
26838;SDS011;40088;51.214;6.786;2023-04-21T09:16:16;4.85;;;3.90;;
26838;SDS011;40088;51.214;6.786;2023-04-21T09:26:19;6.32;;;4.32;;
26838;SDS011;40088;51.214;6.786;2023-04-21T09:36:22;7.10;;;4.57;;
26838;SDS011;40088;51.214;6.786;2023-04-21T09:56:28;8.77;;;4.55;;
26838;SDS011;40088;51.214;6.786;2023-04-21T10:06:32;9.40;;;4.10;;
26838;SDS011;40088;51.214;6.786;2023-04-21T10:16:34;6.22;;;4.20;;
26838;SDS011;40088;51.214;6.786;2023-04-21T10:26:36;6.88;;;4.95;;
26838;SDS011;40088;51.214;6.786;2023-04-21T10:46:56;8.07;;;4.70;;
26838;SDS011;40088;51.214;6.786;2023-04-21T10:56:58;9.05;;;4.53;;
26838;SDS011;40088;51.214;6.786;2023-04-21T11:07:11;6.60;;;4.82;;
26838;SDS011;40088;51.214;6.786;2023-04-21T11:17:14;9.60;;;4.63;;
26838;SDS011;40088;51.214;6.786;2023-04-21T11:27:16;9.98;;;5.55;;
26838;SDS011;40088;51.214;6.786;2023-04-21T11:37:24;6.53;;;4.80;;
26838;SDS011;40088;51.214;6.786;2023-04-21T11:47:26;8.57;;;5.10;;
26838;SDS011;40088;51.214;6.786;2023-04-21T11:57:27;6.28;;;4.72;;
26838;SDS011;40088;51.214;6.786;2023-04-21T12:07:30;5.15;;;4.60;;
26838;SDS011;40088;51.214;6.786;2023-04-21T12:17:38;7.72;;;4.75;;
26838;SDS011;40088;51.214;6.786;2023-04-21T12:27:52;6.10;;;4.88;;
26838;SDS011;40088;51.214;6.786;2023-04-21T12:37:57;7.15;;;5.13;;
26838;SDS011;40088;51.214;6.786;2023-04-21T12:47:57;7.93;;;4.75;;
26838;SDS011;40088;51.214;6.786;2023-04-21T12:57:58;5.88;;;4.55;;
26838;SDS011;40088;51.214;6.786;2023-04-21T13:07:58;7.60;;;4.60;;
26838;SDS011;40088;51.214;6.786;2023-04-21T13:17:58;4.82;;;4.32;;
26838;SDS011;40088;51.214;6.786;2023-04-21T13:27:59;5.07;;;4.57;;
26838;SDS011;40088;51.214;6.786;2023-04-21T13:37:59;5.68;;;5.05;;
26838;SDS011;40088;51.214;6.786;2023-04-21T13:48:00;6.13;;;4.50;;
26838;SDS011;40088;51.214;6.786;2023-04-21T13:58:00;5.05;;;4.43;;
26838;SDS011;40088;51.214;6.786;2023-04-21T14:08:01;6.68;;;4.70;;
26838;SDS011;40088;51.214;6.786;2023-04-21T14:18:01;6.20;;;4.30;;
26838;SDS011;40088;51.214;6.786;2023-04-21T14:28:02;4.43;;;4.03;;
26838;SDS011;40088;51.214;6.786;2023-04-21T14:38:06;4.78;;;3.97;;
26838;SDS011;40088;51.214;6.786;2023-04-21T14:48:07;4.55;;;4.05;;
26838;SDS011;40088;51.214;6.786;2023-04-21T14:58:07;4.60;;;4.20;;
26838;SDS011;40088;51.214;6.786;2023-04-21T15:08:08;4.93;;;4.18;;
26838;SDS011;40088;51.214;6.786;2023-04-21T15:18:09;6.32;;;4.20;;
26838;SDS011;40088;51.214;6.786;2023-04-21T15:28:09;4.88;;;4.10;;
26838;SDS011;40088;51.214;6.786;2023-04-21T15:38:10;4.23;;;3.83;;
26838;SDS011;40088;51.214;6.786;2023-04-21T15:48:10;4.22;;;3.83;;
26838;SDS011;40088;51.214;6.786;2023-04-21T15:58:12;5.03;;;4.38;;
26838;SDS011;40088;51.214;6.786;2023-04-21T16:08:12;4.10;;;3.70;;
26838;SDS011;40088;51.214;6.786;2023-04-21T16:18:12;4.05;;;3.65;;
26838;SDS011;40088;51.214;6.786;2023-04-21T16:28:13;4.63;;;4.10;;
26838;SDS011;40088;51.214;6.786;2023-04-21T16:38:13;4.20;;;3.63;;
26838;SDS011;40088;51.214;6.786;2023-04-21T16:48:13;3.80;;;3.50;;
26838;SDS011;40088;51.214;6.786;2023-04-21T16:58:13;3.90;;;3.60;;
26838;SDS011;40088;51.214;6.786;2023-04-21T17:08:14;4.55;;;3.75;;
26838;SDS011;40088;51.214;6.786;2023-04-21T17:18:14;3.90;;;3.60;;
26838;SDS011;40088;51.214;6.786;2023-04-21T17:28:14;4.00;;;3.55;;
26838;SDS011;40088;51.214;6.786;2023-04-21T17:38:15;4.75;;;4.05;;
26838;SDS011;40088;51.214;6.786;2023-04-21T17:48:15;4.28;;;3.80;;
26838;SDS011;40088;51.214;6.786;2023-04-21T17:58:15;3.55;;;3.15;;
26838;SDS011;40088;51.214;6.786;2023-04-21T18:08:16;3.80;;;3.42;;
26838;SDS011;40088;51.214;6.786;2023-04-21T18:18:18;3.60;;;3.15;;
26838;SDS011;40088;51.214;6.786;2023-04-21T18:28:18;3.05;;;2.75;;
26838;SDS011;40088;51.214;6.786;2023-04-21T18:38:18;3.40;;;3.10;;
26838;SDS011;40088;51.214;6.786;2023-04-21T18:48:19;3.67;;;3.13;;
26838;SDS011;40088;51.214;6.786;2023-04-21T18:58:19;3.13;;;2.72;;
26838;SDS011;40088;51.214;6.786;2023-04-21T19:08:19;3.90;;;3.03;;
26838;SDS011;40088;51.214;6.786;2023-04-21T19:18:20;3.15;;;2.80;;
26838;SDS011;40088;51.214;6.786;2023-04-21T19:28:20;3.30;;;2.97;;
26838;SDS011;40088;51.214;6.786;2023-04-21T19:38:21;3.45;;;3.15;;
26838;SDS011;40088;51.214;6.786;2023-04-21T19:48:21;2.95;;;2.65;;
26838;SDS011;40088;51.214;6.786;2023-04-21T19:58:21;3.70;;;2.80;;
26838;SDS011;40088;51.214;6.786;2023-04-21T20:08:22;3.55;;;3.17;;
26838;SDS011;40088;51.214;6.786;2023-04-21T20:18:22;2.57;;;2.30;;
26838;SDS011;40088;51.214;6.786;2023-04-21T20:28:23;2.92;;;2.63;;
26838;SDS011;40088;51.214;6.786;2023-04-21T20:38:23;3.25;;;2.67;;
26838;SDS011;40088;51.214;6.786;2023-04-21T20:48:24;3.25;;;2.80;;
26838;SDS011;40088;51.214;6.786;2023-04-21T20:58:24;2.78;;;2.40;;
26838;SDS011;40088;51.214;6.786;2023-04-21T21:08:25;2.70;;;2.50;;
26838;SDS011;40088;51.214;6.786;2023-04-21T21:18:25;2.90;;;2.50;;
26838;SDS011;40088;51.214;6.786;2023-04-21T21:28:25;2.78;;;2.50;;
26838;SDS011;40088;51.214;6.786;2023-04-21T21:38:26;2.30;;;2.10;;
26838;SDS011;40088;51.214;6.786;2023-04-21T21:48:26;2.22;;;2.03;;
26838;SDS011;40088;51.214;6.786;2023-04-21T21:58:26;3.05;;;2.45;;
26838;SDS011;40088;51.214;6.786;2023-04-21T22:08:26;2.33;;;2.08;;
26838;SDS011;40088;51.214;6.786;2023-04-21T22:18:27;2.60;;;2.25;;
26838;SDS011;40088;51.214;6.786;2023-04-21T22:28:28;2.40;;;2.20;;
26838;SDS011;40088;51.214;6.786;2023-04-21T22:38:29;2.10;;;1.90;;
26838;SDS011;40088;51.214;6.786;2023-04-21T22:48:29;2.42;;;2.22;;
26838;SDS011;40088;51.214;6.786;2023-04-21T22:58:31;2.60;;;2.35;;
26838;SDS011;40088;51.214;6.786;2023-04-21T23:08:31;2.53;;;2.20;;
26838;SDS011;40088;51.214;6.786;2023-04-21T23:18:32;3.05;;;2.42;;
26838;SDS011;40088;51.214;6.786;2023-04-21T23:28:32;2.40;;;2.20;;
26838;SDS011;40088;51.214;6.786;2023-04-21T23:38:32;2.50;;;2.30;;
26838;SDS011;40088;51.214;6.786;2023-04-21T23:48:33;2.30;;;2.08;;
26838;SDS011;40088;51.214;6.786;2023-04-21T23:58:33;2.97;;;2.40;;
